createdAt,value
2023-02-28T00:08:36.064Z,-0.41
2023-02-28T00:18:37.472Z,-0.40
2023-02-28T00:28:38.783Z,-0.39
2023-02-28T00:38:40.145Z,-0.46
2023-02-28T00:48:41.403Z,-0.54
2023-02-28T00:58:42.658Z,-0.51
2023-02-28T01:08:43.904Z,-0.43
2023-02-28T01:18:45.204Z,-0.41
2023-02-28T01:28:46.464Z,-0.41
2023-02-28T01:38:47.709Z,-0.44
2023-02-28T01:48:48.943Z,-0.80
2023-02-28T01:58:50.308Z,-1.15
2023-02-28T02:08:51.726Z,-1.33
2023-02-28T02:18:53.167Z,-1.52
2023-02-28T02:28:54.374Z,-1.67
2023-02-28T02:38:55.626Z,-1.75
2023-02-28T02:48:56.875Z,-1.81
2023-02-28T02:58:58.081Z,-1.92
2023-02-28T03:08:59.336Z,-1.99
2023-02-28T03:19:00.740Z,-2.11
2023-02-28T03:29:01.953Z,-2.00
2023-02-28T03:39:03.605Z,-1.98
2023-02-28T03:49:04.904Z,-2.07
2023-02-28T03:59:06.315Z,-2.04
2023-02-28T04:09:07.537Z,-1.98
2023-02-28T04:19:08.989Z,-1.93
2023-02-28T04:29:10.211Z,-1.88
2023-02-28T04:39:11.790Z,-1.91
2023-02-28T04:49:13.026Z,-1.92
2023-02-28T04:59:14.227Z,-1.77
2023-02-28T05:09:15.437Z,-1.75
2023-02-28T05:19:16.973Z,-1.74
2023-02-28T05:29:18.238Z,-1.64
2023-02-28T05:39:19.664Z,-1.56
2023-02-28T05:49:20.939Z,-1.30
2023-02-28T05:59:22.238Z,-1.11
2023-02-28T06:09:23.941Z,-1.02
2023-02-28T06:19:26.593Z,-1.07
2023-02-28T06:29:27.806Z,-1.05
2023-02-28T06:39:29.013Z,-1.01
2023-02-28T06:49:30.292Z,-0.86
2023-02-28T06:59:31.512Z,-0.93
2023-02-28T07:09:32.704Z,-0.81
2023-02-28T07:30:18.078Z,-0.68
2023-02-28T07:40:19.559Z,-0.60
2023-02-28T07:50:20.839Z,-0.66
2023-02-28T08:00:22.734Z,-0.46
2023-02-28T08:10:24.850Z,-0.19
2023-02-28T08:20:26.104Z,-0.08
2023-02-28T08:30:27.407Z,-0.07
2023-02-28T08:40:28.768Z,0.20
2023-02-28T08:50:30.005Z,0.23
2023-02-28T09:00:31.274Z,0.48
2023-02-28T09:10:32.567Z,1.03
2023-02-28T09:20:33.897Z,1.09
2023-02-28T09:30:35.218Z,1.24
2023-02-28T09:40:36.804Z,1.19
2023-02-28T09:50:38.024Z,1.45
2023-02-28T10:00:39.276Z,1.48
2023-02-28T10:10:40.552Z,1.42
2023-02-28T10:20:42.094Z,1.59
2023-02-28T10:30:43.472Z,2.01
2023-02-28T10:40:44.977Z,2.52
2023-02-28T10:50:46.300Z,3.00
2023-02-28T11:00:47.777Z,3.37
2023-02-28T11:10:49.032Z,3.77
2023-02-28T11:20:50.289Z,3.13
2023-02-28T11:30:52.858Z,3.87
2023-02-28T11:40:54.159Z,3.64
2023-02-28T11:50:55.457Z,3.67
2023-02-28T12:00:56.785Z,4.28
2023-02-28T12:10:58.145Z,3.65
2023-02-28T12:21:00.483Z,3.68
2023-02-28T12:31:02.021Z,3.50
2023-02-28T12:41:03.404Z,3.94
2023-02-28T12:51:04.645Z,4.63
2023-02-28T13:01:05.885Z,4.69
2023-02-28T13:11:13.141Z,4.69
2023-02-28T13:21:21.144Z,4.72
2023-02-28T13:31:22.642Z,4.46
2023-02-28T13:41:23.878Z,4.28
2023-02-28T13:51:25.106Z,4.38
2023-02-28T14:01:26.594Z,4.45
2023-02-28T14:11:28.030Z,4.32
2023-02-28T14:21:30.058Z,4.67
2023-02-28T14:31:31.652Z,4.66
2023-02-28T14:41:33.223Z,4.75
2023-02-28T14:51:34.560Z,4.62
2023-02-28T15:01:35.896Z,4.74
2023-02-28T15:11:37.164Z,4.65
2023-02-28T15:21:38.459Z,4.50
2023-02-28T15:31:55.933Z,4.57
2023-02-28T15:41:58.457Z,4.53
2023-02-28T15:51:59.909Z,4.35
2023-02-28T16:02:01.485Z,4.29
2023-02-28T16:12:02.821Z,4.14
2023-02-28T16:22:04.105Z,3.95
2023-02-28T16:32:05.591Z,3.71
2023-02-28T16:42:07.995Z,3.68
2023-02-28T16:52:09.978Z,3.51
2023-02-28T17:02:11.356Z,3.41
2023-02-28T17:12:12.751Z,3.24
2023-02-28T17:22:13.972Z,3.11
2023-02-28T17:32:21.551Z,3.00
2023-02-28T17:42:22.857Z,2.79
2023-02-28T17:52:24.206Z,2.65
2023-02-28T18:02:25.973Z,2.56
2023-02-28T18:12:27.520Z,2.39
2023-02-28T18:22:28.778Z,2.06
2023-02-28T18:32:30.272Z,1.93
2023-02-28T18:42:31.600Z,1.80
2023-02-28T18:52:32.904Z,1.76
2023-02-28T19:02:34.141Z,1.66
2023-02-28T19:12:36.014Z,1.53
2023-02-28T19:22:37.316Z,1.47
2023-02-28T19:32:38.785Z,1.34
2023-02-28T19:42:40.302Z,1.27
2023-02-28T19:52:43.355Z,1.17
2023-02-28T20:02:44.802Z,1.19
2023-02-28T20:12:46.071Z,1.14
2023-02-28T20:22:47.360Z,1.18
2023-02-28T20:32:48.813Z,1.10
2023-02-28T20:42:50.097Z,1.05
2023-02-28T20:52:51.401Z,0.96
2023-02-28T21:02:52.746Z,0.92
2023-02-28T21:12:57.717Z,0.77
2023-02-28T21:22:59.033Z,0.61
2023-02-28T21:33:01.260Z,0.48
2023-02-28T21:43:02.514Z,0.25
2023-02-28T21:53:03.776Z,0.12
2023-02-28T22:03:05.100Z,-0.04
2023-02-28T22:13:06.371Z,-0.14
2023-02-28T22:23:07.664Z,-0.28
2023-02-28T22:33:08.980Z,-0.36
2023-02-28T22:43:10.291Z,-0.59
2023-02-28T22:53:11.544Z,-0.61
2023-02-28T23:03:12.771Z,-0.73
2023-02-28T23:13:13.972Z,-0.82
2023-02-28T23:23:15.213Z,-1.01
2023-02-28T23:33:16.548Z,-1.13
2023-02-28T23:43:18.611Z,-1.26
2023-02-28T23:53:19.850Z,-1.23
